createdAt,value
2022-12-08T00:02:44.831Z,83.30
2022-12-08T00:08:06.847Z,82.95
2022-12-08T00:13:10.305Z,83.19
2022-12-08T00:18:13.921Z,82.89
2022-12-08T00:23:17.430Z,82.88
2022-12-08T00:28:20.695Z,82.82
2022-12-08T00:33:24.254Z,82.84
2022-12-08T00:38:27.426Z,83.05
2022-12-08T00:43:30.751Z,82.86
2022-12-08T00:48:34.050Z,82.78
2022-12-08T00:53:37.256Z,82.27
2022-12-08T00:58:40.426Z,83.01
2022-12-08T01:03:44.524Z,82.97
2022-12-08T01:08:48.426Z,82.96
2022-12-08T01:13:51.649Z,82.91
2022-12-08T01:18:55.028Z,82.32
2022-12-08T01:24:00.834Z,82.62
2022-12-08T01:29:04.072Z,81.84
2022-12-08T01:34:08.991Z,82.64
2022-12-08T01:39:18.217Z,81.63
2022-12-08T01:44:21.363Z,81.35
2022-12-08T01:49:35.383Z,82.08
2022-12-08T01:54:51.226Z,81.86
2022-12-08T02:00:02.942Z,81.29
2022-12-08T02:05:07.246Z,81.61
2022-12-08T02:10:15.114Z,81.55
2022-12-08T02:15:19.116Z,82.10
2022-12-08T02:20:56.615Z,81.79
2022-12-08T02:26:11.566Z,81.63
2022-12-08T02:31:37.501Z,81.80
2022-12-08T02:36:43.754Z,82.18
2022-12-08T02:41:54.305Z,82.01
2022-12-08T02:47:10.911Z,82.21
2022-12-08T02:52:14.067Z,82.41
2022-12-08T02:57:48.665Z,82.58
2022-12-08T03:03:08.302Z,82.96
2022-12-08T03:08:33.232Z,82.95
2022-12-08T03:13:47.463Z,82.99
2022-12-08T03:19:02.128Z,83.10
2022-12-08T03:24:07.998Z,83.39
2022-12-08T03:29:12.806Z,83.60
2022-12-08T03:34:19.188Z,83.73
2022-12-08T03:39:22.433Z,83.65
2022-12-08T03:44:25.703Z,84.05
2022-12-08T03:49:29.092Z,84.09
2022-12-08T03:54:32.381Z,84.41
2022-12-08T03:59:35.608Z,84.01
2022-12-08T04:04:38.867Z,83.99
2022-12-08T04:09:42.398Z,84.01
2022-12-08T04:14:45.603Z,84.04
2022-12-08T04:19:48.882Z,84.05
2022-12-08T04:24:52.049Z,84.15
2022-12-08T04:29:55.413Z,84.14
2022-12-08T04:34:58.545Z,84.00
2022-12-08T04:40:02.222Z,83.81
2022-12-08T04:45:06.557Z,83.55
2022-12-08T04:50:10.409Z,83.53
2022-12-08T04:55:13.608Z,82.81
2022-12-08T05:00:20.944Z,82.80
2022-12-08T05:05:24.674Z,83.15
2022-12-08T05:10:27.976Z,83.32
2022-12-08T05:15:31.144Z,82.90
2022-12-08T05:20:35.186Z,82.71
2022-12-08T05:25:38.535Z,83.13
2022-12-08T05:30:41.930Z,82.79
2022-12-08T05:35:45.192Z,82.08
2022-12-08T05:40:54.579Z,81.94
2022-12-08T05:45:58.341Z,82.59
2022-12-08T05:51:01.652Z,82.88
2022-12-08T05:56:05.074Z,82.58
2022-12-08T06:01:08.848Z,81.96
2022-12-08T06:06:12.109Z,81.40
2022-12-08T06:11:27.071Z,81.18
2022-12-08T06:16:30.831Z,81.53
2022-12-08T06:21:34.289Z,81.24
2022-12-08T06:26:37.641Z,80.64
2022-12-08T06:31:41.086Z,80.04
2022-12-08T06:36:44.449Z,80.73
2022-12-08T06:42:06.198Z,81.17
2022-12-08T06:47:10.196Z,80.43
2022-12-08T06:52:13.466Z,80.92
2022-12-08T06:57:18.709Z,80.09
2022-12-08T07:02:22.451Z,79.35
2022-12-08T07:07:25.808Z,79.96
2022-12-08T07:12:30.073Z,79.48
2022-12-08T07:17:33.467Z,78.71
2022-12-08T07:22:37.064Z,78.28
2022-12-08T07:27:40.641Z,78.93
2022-12-08T07:32:43.928Z,77.46
2022-12-08T07:37:47.121Z,78.19
2022-12-08T07:42:50.329Z,76.86
2022-12-08T07:47:53.552Z,77.53
2022-12-08T07:52:57.015Z,76.04
2022-12-08T07:58:00.408Z,75.49
2022-12-08T08:03:03.923Z,77.39
2022-12-08T08:08:07.712Z,76.80
2022-12-08T08:13:11.198Z,76.16
2022-12-08T08:18:14.689Z,78.45
2022-12-08T08:23:17.839Z,78.88
2022-12-08T08:28:22.324Z,76.11
2022-12-08T08:33:26.433Z,75.66
2022-12-08T08:38:29.937Z,76.86
2022-12-08T08:43:38.037Z,76.39
2022-12-08T08:48:42.715Z,74.55
2022-12-08T08:53:46.946Z,74.89
2022-12-08T08:58:52.695Z,75.27
2022-12-08T09:03:57.376Z,73.85
2022-12-08T09:09:06.434Z,74.47
2022-12-08T09:14:14.962Z,74.58
2022-12-08T09:19:18.209Z,74.54
2022-12-08T09:24:21.423Z,73.88
2022-12-08T09:29:26.872Z,73.23
2022-12-08T09:34:32.434Z,72.23
2022-12-08T09:39:36.344Z,71.82
2022-12-08T09:45:03.378Z,72.34
2022-12-08T09:50:16.425Z,72.36
2022-12-08T09:55:39.429Z,72.56
2022-12-08T10:00:46.275Z,73.25
2022-12-08T10:06:18.143Z,73.85
2022-12-08T10:11:38.852Z,74.08
2022-12-08T10:16:48.404Z,73.93
2022-12-08T10:22:12.751Z,74.09
2022-12-08T10:27:16.081Z,74.47
2022-12-08T10:32:23.236Z,74.46
2022-12-08T10:37:26.557Z,74.24
2022-12-08T10:42:39.174Z,73.83
2022-12-08T10:47:45.505Z,73.29
2022-12-08T10:53:27.131Z,73.43
2022-12-08T10:58:36.374Z,73.33
2022-12-08T11:03:48.083Z,73.21
2022-12-08T11:08:55.374Z,73.32
2022-12-08T11:13:58.896Z,73.31
2022-12-08T11:19:07.002Z,73.59
2022-12-08T11:24:16.221Z,73.80
2022-12-08T11:29:20.333Z,73.50
2022-12-08T11:34:37.681Z,73.44
2022-12-08T11:39:47.513Z,73.41
2022-12-08T11:45:00.947Z,73.17
2022-12-08T11:50:32.106Z,73.07
2022-12-08T11:55:40.677Z,73.18
2022-12-08T12:00:46.389Z,72.74
2022-12-08T12:06:54.257Z,72.13
2022-12-08T12:12:16.568Z,69.43
2022-12-08T12:17:45.856Z,71.47
2022-12-08T12:22:57.151Z,72.13
2022-12-08T12:28:06.193Z,71.94
2022-12-08T12:33:13.718Z,72.43
2022-12-08T12:38:49.359Z,72.11
2022-12-08T12:44:14.842Z,73.49
2022-12-08T12:49:43.008Z,73.96
2022-12-08T12:54:51.694Z,74.32
2022-12-08T12:59:56.016Z,74.74
2022-12-08T13:05:02.707Z,75.29
2022-12-08T13:10:24.777Z,76.19
2022-12-08T13:16:05.511Z,77.85
2022-12-08T13:21:17.268Z,78.88
2022-12-08T13:26:24.348Z,79.81
2022-12-08T13:31:46.655Z,80.61
2022-12-08T13:37:10.871Z,81.39
2022-12-08T13:42:32.804Z,80.23
2022-12-08T13:47:59.575Z,80.92
2022-12-08T13:59:07.761Z,80.90
2022-12-08T14:04:47.468Z,80.56
2022-12-08T14:09:43.667Z,80.00
2022-12-08T14:15:06.022Z,81.72
2022-12-08T14:20:12.476Z,80.43
2022-12-08T14:25:18.411Z,79.77
2022-12-08T14:30:26.350Z,80.13
2022-12-08T14:35:38.334Z,80.30
2022-12-08T14:41:02.932Z,80.56
2022-12-08T14:46:21.046Z,80.76
2022-12-08T14:51:29.627Z,81.08
2022-12-08T14:56:39.359Z,81.40
2022-12-08T15:01:44.367Z,82.33
2022-12-08T15:06:47.604Z,82.69
2022-12-08T15:12:01.989Z,82.71
2022-12-08T15:17:40.272Z,82.87
2022-12-08T15:22:43.451Z,83.22
2022-12-08T15:27:50.492Z,83.42
2022-12-08T15:32:56.707Z,83.78
2022-12-08T15:38:00.205Z,84.41
2022-12-08T15:43:03.814Z,84.40
2022-12-08T15:48:08.145Z,84.18
2022-12-08T15:53:11.901Z,84.55
2022-12-08T16:09:20.168Z,84.35
2022-12-08T16:15:23.800Z,84.16
2022-12-08T17:36:15.151Z,72.36
2022-12-08T17:41:18.976Z,71.05
2022-12-08T17:46:23.382Z,68.79
2022-12-08T17:51:26.698Z,68.26
2022-12-08T17:56:30.008Z,65.65
2022-12-08T18:01:34.865Z,63.44
2022-12-08T18:06:39.462Z,62.47
2022-12-08T18:11:44.013Z,60.75
2022-12-08T18:16:48.126Z,58.24
2022-12-08T18:21:51.441Z,65.03
2022-12-08T18:26:55.767Z,69.42
2022-12-08T18:31:59.352Z,61.21
2022-12-08T18:37:02.535Z,60.10
2022-12-08T18:42:23.138Z,66.82
2022-12-08T18:47:26.411Z,62.30
2022-12-08T18:52:32.394Z,59.75
2022-12-08T18:57:42.622Z,61.53
2022-12-08T19:02:45.836Z,64.12
2022-12-08T19:07:49.254Z,61.60
2022-12-08T19:12:53.690Z,59.44
2022-12-08T19:17:56.866Z,64.94
2022-12-08T19:22:59.994Z,66.33
2022-12-08T19:28:03.317Z,60.82
2022-12-08T19:33:06.549Z,60.93
2022-12-08T19:38:09.797Z,64.17
2022-12-08T19:43:40.815Z,61.27
2022-12-08T19:48:45.028Z,60.49
2022-12-08T19:53:48.249Z,61.05
2022-12-08T19:58:51.464Z,62.11
2022-12-08T20:03:54.609Z,59.05
2022-12-08T20:08:59.881Z,64.55
2022-12-08T20:14:03.205Z,63.70
2022-12-08T20:19:06.407Z,60.55
2022-12-08T20:24:09.725Z,64.52
2022-12-08T20:29:14.975Z,61.83
2022-12-08T20:34:19.858Z,59.79
2022-12-08T20:39:26.192Z,62.88
2022-12-08T20:44:30.404Z,64.31
2022-12-08T20:49:34.885Z,62.01
2022-12-08T20:54:39.295Z,60.72
2022-12-08T20:59:42.699Z,60.16
2022-12-08T21:04:46.033Z,64.14
2022-12-08T21:09:49.408Z,61.12
2022-12-08T21:14:52.879Z,61.56
2022-12-08T21:19:56.295Z,65.12
2022-12-08T21:25:00.029Z,60.89
2022-12-08T21:30:04.433Z,61.58
2022-12-08T21:35:09.014Z,65.39
2022-12-08T21:40:13.266Z,60.96
2022-12-08T21:45:19.437Z,57.85
2022-12-08T21:50:24.109Z,63.26
2022-12-08T21:55:27.805Z,67.19
2022-12-08T22:00:31.329Z,57.26
2022-12-08T22:05:36.250Z,65.05
2022-12-08T22:10:39.678Z,61.90
2022-12-08T22:15:42.978Z,58.40
2022-12-08T22:20:46.190Z,67.21
2022-12-08T22:26:00.488Z,63.33
2022-12-08T22:31:17.467Z,60.61
2022-12-08T22:36:24.111Z,59.87
2022-12-08T22:41:27.464Z,60.32
2022-12-08T22:46:31.815Z,60.06
2022-12-08T22:51:38.798Z,61.28
2022-12-08T22:56:42.459Z,60.25
2022-12-08T23:01:45.627Z,65.97
2022-12-08T23:06:48.958Z,68.25
2022-12-08T23:11:53.606Z,72.62
2022-12-08T23:16:57.031Z,69.15
2022-12-08T23:22:00.386Z,66.63
2022-12-08T23:27:03.761Z,69.31
2022-12-08T23:32:07.327Z,72.31
2022-12-08T23:37:11.593Z,73.19
2022-12-08T23:42:14.979Z,74.20
2022-12-08T23:47:18.578Z,74.95
2022-12-08T23:52:22.073Z,75.90
2022-12-08T23:57:25.546Z,76.73
